Hauptseite
METAR-TAF:

METAR-TAF

Flughäfen :

Leipzig, Deutschland

Flughafen Leipzig/Halle

Breite: 51-25N, Länge: 012-14E, Höhe: 144 m

Beobachtung

Neuester Wetterbericht von vor 20 Minuten, um 00:20 UTC
Wind 3 kt aus Südwest
Temperatur 4°C
Luftfeuchtigkeit 87%
Luftdruck 1014 hPa
Sichtweite 10 km oder mehr
keine Wolken unter 1500 m und keine Kumulonimbus oder Gewitterwolken

METAR: EDDP 280020Z 23003KT CAVOK 04/02 Q1014 NOSIG

Zeit: 02:40 (00:40 UTC)

Prognose

Neuester Wetterbericht von vor 1 Stunde und 40 Minuten, um 23:00 UTC
Gültige Prognose vom 28 um 00 UTC bis 28 um 24 UTC
Wind 3 kt aus unterschiedlichen Richtungen
Sichtweite 10 km oder mehr
keine Wolken unter 1500 m und keine Kumulonimbus oder Gewitterwolken
Übergehend zu
vom 28 um 09 UTC bis 28 um 12 UTC
Wind 5 kt aus Nordwest

TAF: EDDP 272300Z 2800/2824 VRB03KT CAVOK BECMG 2809/2812 32005KT

Wetterbeobachtungen und Prognosen von mehr als 4000 Flughäfen (METAR und TAF Bericht).

Die verfügbaren Stationen werden durch gelbe und rote Markierungen auf der Karte dargestellt.

Führen Sie die Maus auf sie, um den Namen der Station zu sehen.

Darauf klicken, um die Beobachtung von Wetterbeobachtungen und Prognosen zu sehen.

Um die Karte zu ändern : klicken Sie auf den grünen Tasten mit einem schwarzen Kreuz Zum Vergrößern, auf den grünen Button mit einem Gedankenstrich zu verkleinern, oder auf die grünen Pfeile für benachbarte Karten.


METAR-TAF: